sensor_id;sensor_type;location;lat;lon;timestamp;P1;durP1;ratioP1;P2;durP2;ratioP2
15281;SDS011;7742;44.320;19.820;2024-03-17T00:01:51;22.87;;;21.33;;
15281;SDS011;7742;44.320;19.820;2024-03-17T00:04:18;22.83;;;21.43;;
15281;SDS011;7742;44.320;19.820;2024-03-17T00:06:45;20.77;;;19.37;;
15281;SDS011;7742;44.320;19.820;2024-03-17T00:09:11;21.67;;;20.27;;
15281;SDS011;7742;44.320;19.820;2024-03-17T00:11:38;20.57;;;19.17;;
15281;SDS011;7742;44.320;19.820;2024-03-17T00:14:05;18.70;;;17.50;;
15281;SDS011;7742;44.320;19.820;2024-03-17T00:16:32;18.03;;;16.93;;
15281;SDS011;7742;44.320;19.820;2024-03-17T00:18:58;18.20;;;17.07;;
15281;SDS011;7742;44.320;19.820;2024-03-17T00:21:26;17.70;;;16.60;;
15281;SDS011;7742;44.320;19.820;2024-03-17T00:23:53;19.23;;;18.03;;
15281;SDS011;7742;44.320;19.820;2024-03-17T00:26:20;17.07;;;16.00;;
15281;SDS011;7742;44.320;19.820;2024-03-17T00:28:45;14.10;;;13.30;;
15281;SDS011;7742;44.320;19.820;2024-03-17T00:31:16;17.10;;;16.00;;
15281;SDS011;7742;44.320;19.820;2024-03-17T00:33:42;14.67;;;13.77;;
15281;SDS011;7742;44.320;19.820;2024-03-17T00:36:09;14.30;;;13.40;;
15281;SDS011;7742;44.320;19.820;2024-03-17T00:38:36;14.00;;;13.10;;
15281;SDS011;7742;44.320;19.820;2024-03-17T00:41:03;15.83;;;14.97;;
15281;SDS011;7742;44.320;19.820;2024-03-17T00:43:29;15.67;;;14.80;;
15281;SDS011;7742;44.320;19.820;2024-03-17T00:45:56;16.23;;;15.33;;
15281;SDS011;7742;44.320;19.820;2024-03-17T00:48:22;15.87;;;15.00;;
15281;SDS011;7742;44.320;19.820;2024-03-17T00:50:54;13.33;;;12.53;;
15281;SDS011;7742;44.320;19.820;2024-03-17T00:53:19;16.20;;;15.30;;
15281;SDS011;7742;44.320;19.820;2024-03-17T00:55:52;16.27;;;15.37;;
15281;SDS011;7742;44.320;19.820;2024-03-17T00:58:18;15.03;;;14.13;;
15281;SDS011;7742;44.320;19.820;2024-03-17T01:00:45;17.00;;;16.00;;
15281;SDS011;7742;44.320;19.820;2024-03-17T01:03:13;17.27;;;16.17;;
15281;SDS011;7742;44.320;19.820;2024-03-17T01:05:40;17.60;;;16.50;;
15281;SDS011;7742;44.320;19.820;2024-03-17T01:08:07;17.07;;;16.07;;
15281;SDS011;7742;44.320;19.820;2024-03-17T01:10:37;17.87;;;16.67;;
15281;SDS011;7742;44.320;19.820;2024-03-17T01:13:04;18.30;;;16.90;;
15281;SDS011;7742;44.320;19.820;2024-03-17T01:15:31;17.37;;;16.27;;
15281;SDS011;7742;44.320;19.820;2024-03-17T01:17:57;18.00;;;16.90;;
15281;SDS011;7742;44.320;19.820;2024-03-17T01:20:25;18.43;;;17.30;;
15281;SDS011;7742;44.320;19.820;2024-03-17T01:22:50;17.00;;;16.00;;
15281;SDS011;7742;44.320;19.820;2024-03-17T01:25:17;18.13;;;16.87;;
15281;SDS011;7742;44.320;19.820;2024-03-17T01:27:43;16.60;;;15.53;;
15281;SDS011;7742;44.320;19.820;2024-03-17T01:30:12;19.03;;;17.90;;
15281;SDS011;7742;44.320;19.820;2024-03-17T01:32:38;18.87;;;17.67;;
15281;SDS011;7742;44.320;19.820;2024-03-17T01:35:05;19.00;;;17.80;;
15281;SDS011;7742;44.320;19.820;2024-03-17T01:37:31;19.03;;;17.83;;
15281;SDS011;7742;44.320;19.820;2024-03-17T01:39:58;18.13;;;17.03;;
15281;SDS011;7742;44.320;19.820;2024-03-17T01:42:24;18.83;;;17.63;;
15281;SDS011;7742;44.320;19.820;2024-03-17T01:44:51;19.63;;;18.40;;
15281;SDS011;7742;44.320;19.820;2024-03-17T01:47:18;20.10;;;18.80;;
15281;SDS011;7742;44.320;19.820;2024-03-17T01:49:45;19.47;;;18.17;;
15281;SDS011;7742;44.320;19.820;2024-03-17T01:52:12;19.70;;;18.30;;
15281;SDS011;7742;44.320;19.820;2024-03-17T01:54:42;19.07;;;17.87;;
15281;SDS011;7742;44.320;19.820;2024-03-17T01:57:08;19.00;;;17.80;;
15281;SDS011;7742;44.320;19.820;2024-03-17T01:59:36;18.57;;;17.23;;
15281;SDS011;7742;44.320;19.820;2024-03-17T02:02:02;18.93;;;17.73;;
15281;SDS011;7742;44.320;19.820;2024-03-17T02:04:30;16.63;;;15.53;;
15281;SDS011;7742;44.320;19.820;2024-03-17T02:06:56;19.53;;;18.33;;
15281;SDS011;7742;44.320;19.820;2024-03-17T02:09:23;19.27;;;18.07;;
15281;SDS011;7742;44.320;19.820;2024-03-17T02:11:50;19.30;;;17.90;;
15281;SDS011;7742;44.320;19.820;2024-03-17T02:14:16;20.13;;;18.83;;
15281;SDS011;7742;44.320;19.820;2024-03-17T02:16:43;19.00;;;17.80;;
15281;SDS011;7742;44.320;19.820;2024-03-17T02:19:09;19.20;;;18.00;;
15281;SDS011;7742;44.320;19.820;2024-03-17T02:21:37;19.33;;;18.13;;
15281;SDS011;7742;44.320;19.820;2024-03-17T02:24:06;21.40;;;19.90;;
15281;SDS011;7742;44.320;19.820;2024-03-17T02:26:34;19.40;;;18.07;;
15281;SDS011;7742;44.320;19.820;2024-03-17T02:29:00;20.93;;;19.40;;
15281;SDS011;7742;44.320;19.820;2024-03-17T02:31:27;20.37;;;18.97;;
15281;SDS011;7742;44.320;19.820;2024-03-17T02:33:53;21.20;;;19.60;;
15281;SDS011;7742;44.320;19.820;2024-03-17T02:36:20;20.43;;;19.13;;
15281;SDS011;7742;44.320;19.820;2024-03-17T02:38:47;20.80;;;19.40;;
15281;SDS011;7742;44.320;19.820;2024-03-17T02:41:32;22.07;;;20.47;;
15281;SDS011;7742;44.320;19.820;2024-03-17T02:43:59;22.63;;;21.13;;
15281;SDS011;7742;44.320;19.820;2024-03-17T02:46:26;22.10;;;20.60;;
15281;SDS011;7742;44.320;19.820;2024-03-17T02:48:53;21.63;;;20.07;;
15281;SDS011;7742;44.320;19.820;2024-03-17T02:51:20;20.77;;;19.27;;
15281;SDS011;7742;44.320;19.820;2024-03-17T02:53:46;22.83;;;21.13;;
15281;SDS011;7742;44.320;19.820;2024-03-17T02:56:14;23.33;;;21.50;;
15281;SDS011;7742;44.320;19.820;2024-03-17T02:58:43;24.80;;;23.00;;
15281;SDS011;7742;44.320;19.820;2024-03-17T03:01:11;25.07;;;23.30;;
15281;SDS011;7742;44.320;19.820;2024-03-17T03:03:38;25.53;;;23.63;;
15281;SDS011;7742;44.320;19.820;2024-03-17T03:06:05;24.73;;;22.77;;
15281;SDS011;7742;44.320;19.820;2024-03-17T03:08:34;22.27;;;20.57;;
15281;SDS011;7742;44.320;19.820;2024-03-17T03:11:02;25.10;;;23.10;;
15281;SDS011;7742;44.320;19.820;2024-03-17T03:13:29;22.47;;;20.87;;
15281;SDS011;7742;44.320;19.820;2024-03-17T03:15:58;26.30;;;24.20;;
15281;SDS011;7742;44.320;19.820;2024-03-17T03:18:24;27.20;;;25.20;;
15281;SDS011;7742;44.320;19.820;2024-03-17T03:20:51;25.50;;;23.60;;
15281;SDS011;7742;44.320;19.820;2024-03-17T03:23:18;24.03;;;22.23;;
15281;SDS011;7742;44.320;19.820;2024-03-17T03:25:45;24.67;;;22.77;;
15281;SDS011;7742;44.320;19.820;2024-03-17T03:28:29;25.13;;;23.43;;
15281;SDS011;7742;44.320;19.820;2024-03-17T03:30:57;25.60;;;23.67;;
15281;SDS011;7742;44.320;19.820;2024-03-17T03:33:24;22.77;;;21.13;;
15281;SDS011;7742;44.320;19.820;2024-03-17T03:35:53;25.63;;;23.83;;
15281;SDS011;7742;44.320;19.820;2024-03-17T03:38:20;25.53;;;23.63;;
15281;SDS011;7742;44.320;19.820;2024-03-17T03:49:44;25.27;;;23.40;;
15281;SDS011;7742;44.320;19.820;2024-03-17T03:52:11;24.07;;;22.27;;
15281;SDS011;7742;44.320;19.820;2024-03-17T03:54:39;25.13;;;23.37;;
15281;SDS011;7742;44.320;19.820;2024-03-17T03:57:07;24.73;;;22.87;;
15281;SDS011;7742;44.320;19.820;2024-03-17T03:59:35;24.60;;;22.80;;
15281;SDS011;7742;44.320;19.820;2024-03-17T04:02:02;24.53;;;22.63;;
15281;SDS011;7742;44.320;19.820;2024-03-17T04:04:28;24.17;;;22.57;;
15281;SDS011;7742;44.320;19.820;2024-03-17T04:06:57;23.33;;;21.53;;
15281;SDS011;7742;44.320;19.820;2024-03-17T04:09:24;24.43;;;22.70;;
15281;SDS011;7742;44.320;19.820;2024-03-17T04:11:51;25.20;;;23.30;;
15281;SDS011;7742;44.320;19.820;2024-03-17T04:14:18;24.13;;;22.43;;
15281;SDS011;7742;44.320;19.820;2024-03-17T04:16:45;23.53;;;21.83;;
15281;SDS011;7742;44.320;19.820;2024-03-17T04:19:11;25.37;;;23.63;;
15281;SDS011;7742;44.320;19.820;2024-03-17T04:21:41;23.73;;;22.13;;
15281;SDS011;7742;44.320;19.820;2024-03-17T04:24:09;23.80;;;22.20;;
15281;SDS011;7742;44.320;19.820;2024-03-17T04:26:36;21.90;;;20.30;;
15281;SDS011;7742;44.320;19.820;2024-03-17T04:29:03;23.20;;;21.50;;
15281;SDS011;7742;44.320;19.820;2024-03-17T04:31:30;25.13;;;23.30;;
15281;SDS011;7742;44.320;19.820;2024-03-17T04:33:58;24.13;;;22.20;;
15281;SDS011;7742;44.320;19.820;2024-03-17T04:36:25;23.93;;;22.23;;
15281;SDS011;7742;44.320;19.820;2024-03-17T04:38:52;23.40;;;21.60;;
15281;SDS011;7742;44.320;19.820;2024-03-17T04:41:21;22.80;;;21.37;;
15281;SDS011;7742;44.320;19.820;2024-03-17T04:43:48;22.60;;;21.03;;
15281;SDS011;7742;44.320;19.820;2024-03-17T04:46:15;22.70;;;21.17;;
15281;SDS011;7742;44.320;19.820;2024-03-17T04:48:42;22.37;;;20.77;;
15281;SDS011;7742;44.320;19.820;2024-03-17T04:51:14;22.50;;;21.00;;
15281;SDS011;7742;44.320;19.820;2024-03-17T04:53:41;22.33;;;20.80;;
15281;SDS011;7742;44.320;19.820;2024-03-17T04:56:08;22.60;;;21.00;;
15281;SDS011;7742;44.320;19.820;2024-03-17T04:58:36;22.53;;;21.03;;
15281;SDS011;7742;44.320;19.820;2024-03-17T05:01:04;22.23;;;20.63;;
15281;SDS011;7742;44.320;19.820;2024-03-17T05:03:32;21.43;;;19.73;;
15281;SDS011;7742;44.320;19.820;2024-03-17T05:05:59;22.00;;;20.40;;
15281;SDS011;7742;44.320;19.820;2024-03-17T05:08:27;21.27;;;19.67;;
15281;SDS011;7742;44.320;19.820;2024-03-17T05:10:57;20.23;;;18.83;;
15281;SDS011;7742;44.320;19.820;2024-03-17T05:13:25;20.70;;;19.30;;
15281;SDS011;7742;44.320;19.820;2024-03-17T05:15:53;20.43;;;18.93;;
15281;SDS011;7742;44.320;19.820;2024-03-17T05:18:20;18.63;;;17.37;;
15281;SDS011;7742;44.320;19.820;2024-03-17T05:20:56;18.10;;;16.80;;
15281;SDS011;7742;44.320;19.820;2024-03-17T05:23:25;19.50;;;18.10;;
15281;SDS011;7742;44.320;19.820;2024-03-17T05:25:52;19.07;;;17.63;;
15281;SDS011;7742;44.320;19.820;2024-03-17T05:28:19;19.67;;;18.27;;
15281;SDS011;7742;44.320;19.820;2024-03-17T05:30:46;18.60;;;17.20;;
15281;SDS011;7742;44.320;19.820;2024-03-17T05:33:14;19.57;;;18.07;;
15281;SDS011;7742;44.320;19.820;2024-03-17T05:35:48;19.93;;;18.23;;
15281;SDS011;7742;44.320;19.820;2024-03-17T05:38:15;18.10;;;16.80;;
15281;SDS011;7742;44.320;19.820;2024-03-17T05:40:42;18.83;;;17.37;;
15281;SDS011;7742;44.320;19.820;2024-03-17T05:43:09;18.80;;;17.40;;
15281;SDS011;7742;44.320;19.820;2024-03-17T05:45:36;17.93;;;16.53;;
15281;SDS011;7742;44.320;19.820;2024-03-17T05:48:03;19.57;;;18.07;;
15281;SDS011;7742;44.320;19.820;2024-03-17T05:50:32;20.60;;;18.93;;
15281;SDS011;7742;44.320;19.820;2024-03-17T05:52:58;18.53;;;17.17;;
15281;SDS011;7742;44.320;19.820;2024-03-17T05:55:26;19.87;;;18.37;;
15281;SDS011;7742;44.320;19.820;2024-03-17T05:57:52;18.70;;;17.30;;
15281;SDS011;7742;44.320;19.820;2024-03-17T06:00:19;19.37;;;17.83;;
15281;SDS011;7742;44.320;19.820;2024-03-17T06:02:46;21.00;;;19.40;;
15281;SDS011;7742;44.320;19.820;2024-03-17T06:05:13;20.57;;;19.07;;
15281;SDS011;7742;44.320;19.820;2024-03-17T06:07:42;19.60;;;18.30;;
15281;SDS011;7742;44.320;19.820;2024-03-17T06:10:09;20.43;;;18.83;;
15281;SDS011;7742;44.320;19.820;2024-03-17T06:12:37;18.87;;;17.30;;
15281;SDS011;7742;44.320;19.820;2024-03-17T06:15:04;19.30;;;17.90;;
15281;SDS011;7742;44.320;19.820;2024-03-17T06:17:31;17.70;;;16.40;;
15281;SDS011;7742;44.320;19.820;2024-03-17T06:19:59;16.77;;;15.37;;
15281;SDS011;7742;44.320;19.820;2024-03-17T06:22:28;16.93;;;15.80;;
15281;SDS011;7742;44.320;19.820;2024-03-17T06:24:56;16.30;;;14.97;;
15281;SDS011;7742;44.320;19.820;2024-03-17T06:27:24;16.60;;;15.50;;
15281;SDS011;7742;44.320;19.820;2024-03-17T06:29:51;17.13;;;15.93;;
15281;SDS011;7742;44.320;19.820;2024-03-17T06:32:18;16.77;;;15.67;;
15281;SDS011;7742;44.320;19.820;2024-03-17T06:34:45;15.13;;;14.13;;
15281;SDS011;7742;44.320;19.820;2024-03-17T06:37:12;11.97;;;11.17;;
15281;SDS011;7742;44.320;19.820;2024-03-17T06:39:39;14.30;;;13.30;;
15281;SDS011;7742;44.320;19.820;2024-03-17T06:42:07;14.37;;;13.47;;
15281;SDS011;7742;44.320;19.820;2024-03-17T06:44:34;12.77;;;11.97;;
15281;SDS011;7742;44.320;19.820;2024-03-17T06:47:01;14.27;;;13.20;;
15281;SDS011;7742;44.320;19.820;2024-03-17T06:49:28;13.70;;;12.80;;
15281;SDS011;7742;44.320;19.820;2024-03-17T06:51:56;13.10;;;12.30;;
15281;SDS011;7742;44.320;19.820;2024-03-17T06:54:23;14.40;;;13.60;;
15281;SDS011;7742;44.320;19.820;2024-03-17T06:56:50;14.90;;;14.00;;
15281;SDS011;7742;44.320;19.820;2024-03-17T06:59:18;16.60;;;15.60;;
15281;SDS011;7742;44.320;19.820;2024-03-17T07:01:46;15.50;;;14.50;;
15281;SDS011;7742;44.320;19.820;2024-03-17T07:04:13;15.57;;;14.47;;
15281;SDS011;7742;44.320;19.820;2024-03-17T07:06:40;15.63;;;14.63;;
15281;SDS011;7742;44.320;19.820;2024-03-17T07:09:07;16.70;;;15.60;;
15281;SDS011;7742;44.320;19.820;2024-03-17T07:11:34;15.23;;;14.23;;
15281;SDS011;7742;44.320;19.820;2024-03-17T07:14:01;16.60;;;15.50;;
15281;SDS011;7742;44.320;19.820;2024-03-17T07:16:31;15.13;;;14.23;;
15281;SDS011;7742;44.320;19.820;2024-03-17T07:18:58;16.37;;;15.17;;
15281;SDS011;7742;44.320;19.820;2024-03-17T07:21:28;18.53;;;17.13;;
15281;SDS011;7742;44.320;19.820;2024-03-17T07:23:55;15.80;;;14.80;;
15281;SDS011;7742;44.320;19.820;2024-03-17T07:26:23;17.30;;;16.20;;
15281;SDS011;7742;44.320;19.820;2024-03-17T07:28:50;15.70;;;14.70;;
15281;SDS011;7742;44.320;19.820;2024-03-17T07:31:17;16.70;;;15.47;;
15281;SDS011;7742;44.320;19.820;2024-03-17T07:33:45;18.40;;;17.10;;
15281;SDS011;7742;44.320;19.820;2024-03-17T07:36:13;16.60;;;15.50;;
15281;SDS011;7742;44.320;19.820;2024-03-17T07:38:40;15.10;;;14.00;;
15281;SDS011;7742;44.320;19.820;2024-03-17T07:41:07;15.10;;;14.10;;
15281;SDS011;7742;44.320;19.820;2024-03-17T07:43:35;14.70;;;13.77;;
15281;SDS011;7742;44.320;19.820;2024-03-17T07:46:03;13.43;;;12.53;;
15281;SDS011;7742;44.320;19.820;2024-03-17T07:48:30;14.00;;;13.03;;
15281;SDS011;7742;44.320;19.820;2024-03-17T07:50:59;12.57;;;11.73;;
15281;SDS011;7742;44.320;19.820;2024-03-17T07:53:29;14.07;;;13.17;;
15281;SDS011;7742;44.320;19.820;2024-03-17T07:55:59;13.50;;;12.60;;
15281;SDS011;7742;44.320;19.820;2024-03-17T07:58:26;13.90;;;13.00;;
15281;SDS011;7742;44.320;19.820;2024-03-17T08:00:56;14.73;;;13.73;;
15281;SDS011;7742;44.320;19.820;2024-03-17T08:03:24;16.30;;;15.20;;
15281;SDS011;7742;44.320;19.820;2024-03-17T08:05:51;16.83;;;15.60;;
15281;SDS011;7742;44.320;19.820;2024-03-17T08:08:20;16.60;;;15.40;;
15281;SDS011;7742;44.320;19.820;2024-03-17T08:10:47;16.23;;;15.13;;
15281;SDS011;7742;44.320;19.820;2024-03-17T08:13:14;17.73;;;16.53;;
15281;SDS011;7742;44.320;19.820;2024-03-17T08:15:42;17.03;;;15.93;;
15281;SDS011;7742;44.320;19.820;2024-03-17T08:18:09;16.47;;;15.43;;
15281;SDS011;7742;44.320;19.820;2024-03-17T08:20:36;16.43;;;15.33;;
15281;SDS011;7742;44.320;19.820;2024-03-17T08:23:04;17.77;;;16.70;;
15281;SDS011;7742;44.320;19.820;2024-03-17T08:25:33;17.20;;;16.03;;
15281;SDS011;7742;44.320;19.820;2024-03-17T08:28:00;15.43;;;14.53;;
15281;SDS011;7742;44.320;19.820;2024-03-17T08:30:27;16.50;;;15.37;;
15281;SDS011;7742;44.320;19.820;2024-03-17T08:32:55;16.97;;;15.87;;
15281;SDS011;7742;44.320;19.820;2024-03-17T08:35:22;16.93;;;15.83;;
15281;SDS011;7742;44.320;19.820;2024-03-17T08:37:49;15.27;;;14.37;;
15281;SDS011;7742;44.320;19.820;2024-03-17T08:40:19;14.20;;;13.27;;
15281;SDS011;7742;44.320;19.820;2024-03-17T08:42:47;13.20;;;12.30;;
15281;SDS011;7742;44.320;19.820;2024-03-17T08:45:14;14.77;;;13.87;;
15281;SDS011;7742;44.320;19.820;2024-03-17T08:47:41;14.40;;;13.43;;
15281;SDS011;7742;44.320;19.820;2024-03-17T08:50:08;15.47;;;14.57;;
15281;SDS011;7742;44.320;19.820;2024-03-17T08:52:37;15.50;;;14.57;;
15281;SDS011;7742;44.320;19.820;2024-03-17T08:55:05;14.47;;;13.67;;
15281;SDS011;7742;44.320;19.820;2024-03-17T08:57:35;14.37;;;13.57;;
15281;SDS011;7742;44.320;19.820;2024-03-17T09:00:04;13.87;;;13.07;;
15281;SDS011;7742;44.320;19.820;2024-03-17T09:02:31;13.53;;;12.73;;
15281;SDS011;7742;44.320;19.820;2024-03-17T09:04:58;14.47;;;13.67;;
15281;SDS011;7742;44.320;19.820;2024-03-17T09:07:25;13.80;;;13.00;;
15281;SDS011;7742;44.320;19.820;2024-03-17T09:09:52;12.53;;;11.93;;
15281;SDS011;7742;44.320;19.820;2024-03-17T09:12:18;13.57;;;12.77;;
15281;SDS011;7742;44.320;19.820;2024-03-17T09:14:46;14.23;;;13.43;;
15281;SDS011;7742;44.320;19.820;2024-03-17T09:17:15;13.20;;;12.40;;
15281;SDS011;7742;44.320;19.820;2024-03-17T09:19:44;12.90;;;12.10;;
15281;SDS011;7742;44.320;19.820;2024-03-17T09:22:12;14.07;;;13.17;;
15281;SDS011;7742;44.320;19.820;2024-03-17T09:24:39;12.87;;;12.17;;
15281;SDS011;7742;44.320;19.820;2024-03-17T09:27:07;13.13;;;12.53;;
15281;SDS011;7742;44.320;19.820;2024-03-17T09:29:34;13.03;;;12.33;;
15281;SDS011;7742;44.320;19.820;2024-03-17T09:32:01;13.50;;;12.73;;
15281;SDS011;7742;44.320;19.820;2024-03-17T09:34:30;12.00;;;11.30;;
15281;SDS011;7742;44.320;19.820;2024-03-17T09:36:57;12.80;;;12.10;;
15281;SDS011;7742;44.320;19.820;2024-03-17T09:39:24;13.27;;;12.47;;
15281;SDS011;7742;44.320;19.820;2024-03-17T09:41:51;12.07;;;11.40;;
15281;SDS011;7742;44.320;19.820;2024-03-17T09:44:17;13.20;;;12.50;;
15281;SDS011;7742;44.320;19.820;2024-03-17T09:46:44;12.63;;;11.93;;
15281;SDS011;7742;44.320;19.820;2024-03-17T09:49:15;12.23;;;11.63;;
15281;SDS011;7742;44.320;19.820;2024-03-17T09:51:44;12.20;;;11.60;;
15281;SDS011;7742;44.320;19.820;2024-03-17T09:54:16;10.93;;;10.33;;
15281;SDS011;7742;44.320;19.820;2024-03-17T09:56:43;11.23;;;10.67;;
15281;SDS011;7742;44.320;19.820;2024-03-17T09:59:11;12.23;;;11.53;;
15281;SDS011;7742;44.320;19.820;2024-03-17T10:01:38;11.43;;;10.83;;
15281;SDS011;7742;44.320;19.820;2024-03-17T10:04:05;11.70;;;11.10;;
15281;SDS011;7742;44.320;19.820;2024-03-17T10:06:37;12.27;;;11.67;;
15281;SDS011;7742;44.320;19.820;2024-03-17T10:09:13;12.27;;;11.70;;
15281;SDS011;7742;44.320;19.820;2024-03-17T10:11:46;11.10;;;10.60;;
15281;SDS011;7742;44.320;19.820;2024-03-17T10:14:16;12.43;;;11.83;;
15281;SDS011;7742;44.320;19.820;2024-03-17T10:16:43;12.00;;;11.50;;
15281;SDS011;7742;44.320;19.820;2024-03-17T10:19:11;12.93;;;12.27;;
15281;SDS011;7742;44.320;19.820;2024-03-17T10:21:38;12.70;;;12.00;;
15281;SDS011;7742;44.320;19.820;2024-03-17T10:24:06;12.03;;;11.40;;
15281;SDS011;7742;44.320;19.820;2024-03-17T10:26:38;12.07;;;11.47;;
15281;SDS011;7742;44.320;19.820;2024-03-17T10:29:14;10.93;;;10.33;;
15281;SDS011;7742;44.320;19.820;2024-03-17T10:31:46;11.97;;;11.43;;
15281;SDS011;7742;44.320;19.820;2024-03-17T10:34:14;11.17;;;10.67;;
15281;SDS011;7742;44.320;19.820;2024-03-17T10:36:42;11.40;;;10.87;;
15281;SDS011;7742;44.320;19.820;2024-03-17T10:39:16;14.45;;;13.85;;
15281;SDS011;7742;44.320;19.820;2024-03-17T10:41:47;13.67;;;13.07;;
15281;SDS011;7742;44.320;19.820;2024-03-17T10:44:15;13.60;;;13.00;;
15281;SDS011;7742;44.320;19.820;2024-03-17T10:46:42;11.37;;;10.87;;
15281;SDS011;7742;44.320;19.820;2024-03-17T10:49:09;12.10;;;11.50;;
15281;SDS011;7742;44.320;19.820;2024-03-17T10:51:38;11.70;;;11.20;;
15281;SDS011;7742;44.320;19.820;2024-03-17T10:54:06;11.50;;;11.00;;
15281;SDS011;7742;44.320;19.820;2024-03-17T10:56:34;13.40;;;12.80;;
15281;SDS011;7742;44.320;19.820;2024-03-17T10:59:02;13.30;;;12.70;;
15281;SDS011;7742;44.320;19.820;2024-03-17T11:01:30;12.40;;;11.90;;
15281;SDS011;7742;44.320;19.820;2024-03-17T11:03:57;12.00;;;11.50;;
15281;SDS011;7742;44.320;19.820;2024-03-17T11:06:25;11.20;;;10.70;;
15281;SDS011;7742;44.320;19.820;2024-03-17T11:08:52;10.00;;;9.50;;
15281;SDS011;7742;44.320;19.820;2024-03-17T11:11:34;11.57;;;11.07;;
15281;SDS011;7742;44.320;19.820;2024-03-17T11:16:45;9.40;;;9.00;;
15281;SDS011;7742;44.320;19.820;2024-03-17T11:19:14;15.77;;;15.00;;
15281;SDS011;7742;44.320;19.820;2024-03-17T11:21:41;13.70;;;13.10;;
15281;SDS011;7742;44.320;19.820;2024-03-17T11:24:17;12.73;;;12.13;;
15281;SDS011;7742;44.320;19.820;2024-03-17T11:26:45;11.93;;;11.43;;
15281;SDS011;7742;44.320;19.820;2024-03-17T11:29:26;12.67;;;12.07;;
15281;SDS011;7742;44.320;19.820;2024-03-17T11:31:54;11.50;;;11.00;;
15281;SDS011;7742;44.320;19.820;2024-03-17T11:34:30;12.43;;;11.83;;
15281;SDS011;7742;44.320;19.820;2024-03-17T11:36:57;11.80;;;11.30;;
15281;SDS011;7742;44.320;19.820;2024-03-17T11:42:10;12.10;;;11.60;;
15281;SDS011;7742;44.320;19.820;2024-03-17T11:44:42;11.83;;;11.27;;
15281;SDS011;7742;44.320;19.820;2024-03-17T11:47:09;12.17;;;11.67;;
15281;SDS011;7742;44.320;19.820;2024-03-17T11:49:37;12.77;;;12.17;;
15281;SDS011;7742;44.320;19.820;2024-03-17T11:52:04;10.70;;;10.30;;
15281;SDS011;7742;44.320;19.820;2024-03-17T11:54:31;11.53;;;11.07;;
15281;SDS011;7742;44.320;19.820;2024-03-17T11:57:00;11.90;;;11.40;;
15281;SDS011;7742;44.320;19.820;2024-03-17T11:59:27;10.67;;;10.27;;
15281;SDS011;7742;44.320;19.820;2024-03-17T12:01:54;10.40;;;10.00;;
15281;SDS011;7742;44.320;19.820;2024-03-17T12:04:23;10.80;;;10.40;;
15281;SDS011;7742;44.320;19.820;2024-03-17T12:06:50;10.30;;;9.90;;
15281;SDS011;7742;44.320;19.820;2024-03-17T12:09:18;11.40;;;10.90;;
15281;SDS011;7742;44.320;19.820;2024-03-17T12:11:46;12.57;;;12.07;;
15281;SDS011;7742;44.320;19.820;2024-03-17T12:14:15;10.93;;;10.43;;
15281;SDS011;7742;44.320;19.820;2024-03-17T12:16:49;11.07;;;10.67;;
15281;SDS011;7742;44.320;19.820;2024-03-17T12:19:17;13.00;;;12.50;;
15281;SDS011;7742;44.320;19.820;2024-03-17T12:21:45;11.57;;;11.10;;
15281;SDS011;7742;44.320;19.820;2024-03-17T12:24:16;9.67;;;9.27;;
15281;SDS011;7742;44.320;19.820;2024-03-17T12:26:43;10.80;;;10.40;;
15281;SDS011;7742;44.320;19.820;2024-03-17T12:29:23;11.97;;;11.47;;
15281;SDS011;7742;44.320;19.820;2024-03-17T12:31:50;12.47;;;11.87;;
15281;SDS011;7742;44.320;19.820;2024-03-17T12:34:18;13.83;;;13.33;;
15281;SDS011;7742;44.320;19.820;2024-03-17T12:36:45;10.10;;;9.70;;
15281;SDS011;7742;44.320;19.820;2024-03-17T12:39:19;13.87;;;13.27;;
15281;SDS011;7742;44.320;19.820;2024-03-17T12:41:45;11.47;;;11.07;;
15281;SDS011;7742;44.320;19.820;2024-03-17T12:44:22;12.80;;;12.30;;
15281;SDS011;7742;44.320;19.820;2024-03-17T12:46:48;12.40;;;11.90;;
15281;SDS011;7742;44.320;19.820;2024-03-17T12:49:15;11.77;;;11.27;;
15281;SDS011;7742;44.320;19.820;2024-03-17T12:51:41;12.67;;;12.17;;
15281;SDS011;7742;44.320;19.820;2024-03-17T12:54:15;9.87;;;9.47;;
15281;SDS011;7742;44.320;19.820;2024-03-17T12:56:43;12.40;;;11.90;;
15281;SDS011;7742;44.320;19.820;2024-03-17T12:59:23;12.03;;;11.53;;
15281;SDS011;7742;44.320;19.820;2024-03-17T13:02:08;9.60;;;9.20;;
15281;SDS011;7742;44.320;19.820;2024-03-17T13:04:36;8.80;;;8.40;;
15281;SDS011;7742;44.320;19.820;2024-03-17T13:07:09;10.50;;;10.10;;
15281;SDS011;7742;44.320;19.820;2024-03-17T13:09:37;12.43;;;12.03;;
15281;SDS011;7742;44.320;19.820;2024-03-17T13:12:12;11.43;;;11.03;;
15281;SDS011;7742;44.320;19.820;2024-03-17T13:14:40;12.53;;;12.13;;
15281;SDS011;7742;44.320;19.820;2024-03-17T13:17:07;12.07;;;11.67;;
15281;SDS011;7742;44.320;19.820;2024-03-17T13:19:41;11.30;;;10.90;;
15281;SDS011;7742;44.320;19.820;2024-03-17T13:22:10;11.00;;;10.60;;
15281;SDS011;7742;44.320;19.820;2024-03-17T13:24:38;11.20;;;10.80;;
15281;SDS011;7742;44.320;19.820;2024-03-17T13:27:05;12.40;;;11.90;;
15281;SDS011;7742;44.320;19.820;2024-03-17T13:29:33;11.57;;;11.10;;
15281;SDS011;7742;44.320;19.820;2024-03-17T13:32:01;12.33;;;11.93;;
15281;SDS011;7742;44.320;19.820;2024-03-17T13:34:28;11.13;;;10.73;;
15281;SDS011;7742;44.320;19.820;2024-03-17T13:36:55;10.13;;;9.83;;
15281;SDS011;7742;44.320;19.820;2024-03-17T13:39:22;10.80;;;10.40;;
15281;SDS011;7742;44.320;19.820;2024-03-17T13:41:52;11.10;;;10.50;;
15281;SDS011;7742;44.320;19.820;2024-03-17T13:44:21;11.40;;;11.00;;
15281;SDS011;7742;44.320;19.820;2024-03-17T13:46:48;9.73;;;9.33;;
15281;SDS011;7742;44.320;19.820;2024-03-17T13:49:15;8.60;;;8.20;;
15281;SDS011;7742;44.320;19.820;2024-03-17T13:51:43;10.57;;;10.17;;
15281;SDS011;7742;44.320;19.820;2024-03-17T13:54:10;11.80;;;11.30;;
15281;SDS011;7742;44.320;19.820;2024-03-17T13:56:37;10.10;;;9.70;;
15281;SDS011;7742;44.320;19.820;2024-03-17T13:59:05;9.20;;;8.80;;
15281;SDS011;7742;44.320;19.820;2024-03-17T14:01:33;10.00;;;9.60;;
15281;SDS011;7742;44.320;19.820;2024-03-17T14:04:03;9.80;;;9.40;;
15281;SDS011;7742;44.320;19.820;2024-03-17T14:06:30;9.40;;;9.00;;
15281;SDS011;7742;44.320;19.820;2024-03-17T14:08:57;9.57;;;9.27;;
15281;SDS011;7742;44.320;19.820;2024-03-17T14:11:24;10.50;;;10.10;;
15281;SDS011;7742;44.320;19.820;2024-03-17T14:13:50;9.80;;;9.30;;
15281;SDS011;7742;44.320;19.820;2024-03-17T14:16:20;10.50;;;10.10;;
15281;SDS011;7742;44.320;19.820;2024-03-17T14:18:47;10.03;;;9.67;;
15281;SDS011;7742;44.320;19.820;2024-03-17T14:21:14;9.20;;;8.90;;
15281;SDS011;7742;44.320;19.820;2024-03-17T14:23:41;10.63;;;10.23;;
15281;SDS011;7742;44.320;19.820;2024-03-17T14:26:10;11.50;;;11.00;;
15281;SDS011;7742;44.320;19.820;2024-03-17T14:28:38;9.60;;;9.13;;
15281;SDS011;7742;44.320;19.820;2024-03-17T14:31:04;9.97;;;9.57;;
15281;SDS011;7742;44.320;19.820;2024-03-17T14:33:33;9.50;;;9.13;;
15281;SDS011;7742;44.320;19.820;2024-03-17T14:36:00;11.27;;;10.77;;
15281;SDS011;7742;44.320;19.820;2024-03-17T14:38:29;9.70;;;9.30;;
15281;SDS011;7742;44.320;19.820;2024-03-17T14:40:56;9.43;;;9.10;;
15281;SDS011;7742;44.320;19.820;2024-03-17T14:43:25;10.73;;;10.33;;